Share

Cumberland College, KY

06:13 PM EDT on April 24, 2014 (GMT -0400)
Mackey Bend (KKYBARBO4) Elev 981 ft | 36.81 °N, 83.96 °W | Change Station

Current weather conditions updated 8 minutes ago

Clear
Klart
77.9 °F
Feels Like 78 °F
N
1.1
Vind Växlande Vind from Ostlig
Soluppgång 6:51 AM
Solnedgång 8:19 PM
Månen Fjärde kvarteret

Tomorrow is forecast to be Much Cooler than today. Åska med skurar..

Lufttryck 29.85 tum
Sikt 10.0 miles
Molnigt Klart
Värmeindex 78 °F
Daggpunkt 40 °F
Luftfuktighet 26%
Rainfall 0.00 tum
Snow Depth Not available.
UV 3 out of 16
Pollen 8.80 out of 12
Air Quality Not available.
Flu Activity Sporadic
METAR KLOZ 242153Z AUTO 12006KT 10SM CLR 24/01 A2987 RMK AO2 SLP108 T02440011

More Conditions Fewer Conditions

Lufttryck 29.85 tum
Sikt 10.0 miles
Molnigt Klart
Värmeindex 78 °F
Daggpunkt 40 °F
Luftfuktighet 26%
Rainfall 0.00 tum
Snow Depth Not available.
UV 3 out of 16
Pollen 8.80 out of 12
Air Quality Not available.
Flu Activity Sporadic
METAR KLOZ 242153Z AUTO 12006KT 10SM CLR 24/01 A2987 RMK AO2 SLP108 T02440011

More Conditions Fewer Conditions

10-Day Weather Forecast

Almanac

Astronomi

Apr. 24, 2014 Rise Set
Actual Time 6:51 AM EDT 8:19 PM EDT
Civil Twilight 6:23 AM EDT 8:46 PM EDT
Nautical Twilight 5:51 AM EDT 9:19 PM EDT
Astronomical Twilight 5:16 AM EDT 9:53 PM EDT
Månen 3:53 AM EDT 3:40 PM EDT
Length Of Visible Light 14h 22m
Dagens längd
13h 28m
Tomorrow will be 2m 6s longer.
Fjärde kvarteret, 22% of the Moon is Illuminated
Idag
Fjärde kvarteret
Apr 29
New
May 6
Första kvarteret
May 14
Fullmåne
May 21
Sista kvarteret

Today's Extremes

State Highs State Lows

Community

  • Jone Runs Falls
    Jone Runs Falls
  • Sunset at Apalachicola Bay, Florida
    Sunset at Apalachicola Bay, Florida
  • Clouds mov'n in
    Clouds mov'n in
  • Stacked
    Stacked
  • clouds approaching Red Sox Nation
    clouds approaching Red Sox Nation

WunderPhotos

Upload Photos

1,704,729 photos uploaded!

Nearby

Snödjup

Station Depth Elevation
No new snow has been reported.

Coastal Water Temperatures

Plats Temperatur
No Stations Reporting

Earthquake Activity

Stad Distance Mag. Time & Date
No recent earthquake activity has been reported nearby.
Minimum magnitude displayed is 2.5.

Nearby Weather Stations

Station Location Temp Värmeindex Daggpunkt Luftfuktighet Vind Precip. Elev Uppdaterad Type
Mackey Bend, Barbourville, KY 77.9 °F 78 °F 40 °F 26% Ostlig  -  1.1 miles/tim - / hr 981 ft 6:05 PM EDT Normal
liford's, Barbourville, KY 80.4 °F 79 °F 34 °F 19% V/NV  -  2.7 miles/tim - / hr 1066 ft 6:04 PM EDT Normal
MSWO, London, KY 75.7 °F 77 °F 36 °F 24% Sydlig  -  2.9 miles/tim 0.00 tum / hr 1163 ft 6:13 PM EDT Rapid Fire
Burnside, KY 80.4 °F 79 °F 37 °F 21% N/NV  -  0.0 miles/tim 0.00 tum / hr 1200 ft 6:13 PM EDT Rapid Fire

Show More Stations Show Fewer Stations

What do you think?

We're not finished. Please let us know what you like, what you don't like, and what you are still missing.